createdAt,value
2022-09-06T00:04:52.945Z,54
2022-09-06T00:15:54.636Z,40
2022-09-06T00:21:35.240Z,50
2022-09-06T00:27:15.558Z,58
2022-09-06T00:32:56.018Z,48
2022-09-06T00:38:36.448Z,50
2022-09-06T00:44:16.736Z,52
2022-09-06T00:49:56.917Z,46
2022-09-06T00:55:48.403Z,58
2022-09-06T01:01:30.552Z,52
2022-09-06T01:07:11.804Z,56
2022-09-06T01:12:52.410Z,54
2022-09-06T01:18:32.926Z,48
2022-09-06T01:24:12.975Z,64
2022-09-06T01:29:53.197Z,60
2022-09-06T01:35:33.312Z,48
2022-09-06T01:41:13.379Z,46
2022-09-06T01:46:53.466Z,52
2022-09-06T01:52:33.857Z,48
2022-09-06T01:58:14.112Z,50
2022-09-06T02:03:54.406Z,52
2022-09-06T02:09:34.510Z,50
2022-09-06T02:15:14.562Z,52
2022-09-06T02:20:54.729Z,58
2022-09-06T02:26:34.915Z,56
2022-09-06T02:32:15.117Z,40
2022-09-06T02:37:55.287Z,42
2022-09-06T02:43:35.414Z,56
2022-09-06T02:49:15.646Z,58
2022-09-06T02:54:55.995Z,52
2022-09-06T03:00:36.167Z,66
2022-09-06T03:06:16.280Z,58
2022-09-06T03:11:56.302Z,44
2022-09-06T03:20:50.222Z,48
2022-09-06T03:27:00.365Z,46
2022-09-06T03:33:00.812Z,52
2022-09-06T03:40:37.583Z,44
2022-09-06T03:46:23.794Z,46
2022-09-06T03:52:06.967Z,46
2022-09-06T03:57:48.851Z,54
2022-09-06T04:03:44.799Z,46
2022-09-06T04:09:42.018Z,54
2022-09-06T04:15:23.114Z,48
2022-09-06T04:21:04.579Z,48
2022-09-06T04:26:45.299Z,58
2022-09-06T04:32:25.760Z,58
2022-09-06T04:38:06.093Z,56
2022-09-06T04:43:46.623Z,40
2022-09-06T04:49:27.990Z,56
2022-09-06T04:55:08.356Z,56
2022-09-06T05:00:49.150Z,46
2022-09-06T05:12:10.701Z,38
2022-09-06T05:17:50.965Z,48
2022-09-06T05:23:31.445Z,52
2022-09-06T05:29:16.014Z,44
2022-09-06T05:35:14.287Z,56
2022-09-06T05:46:44.190Z,56
2022-09-06T05:52:59.160Z,56
2022-09-06T06:03:17.330Z,56
2022-09-06T06:08:59.202Z,54
2022-09-06T06:14:39.396Z,48
2022-09-06T06:27:33.754Z,56
2022-09-06T08:02:59.362Z,58
2022-09-06T08:08:57.354Z,48
2022-09-06T08:14:39.843Z,20
2022-09-06T08:20:22.234Z,10
2022-09-06T08:26:02.491Z,6
2022-09-06T08:31:43.095Z,22
2022-09-06T08:37:28.451Z,6
2022-09-06T08:43:11.917Z,16
2022-09-06T08:48:55.660Z,24
2022-09-06T08:54:39.417Z,24
2022-09-06T09:00:19.610Z,16
2022-09-06T09:06:01.047Z,56
2022-09-06T09:11:45.260Z,4
2022-09-06T09:17:25.831Z,22
2022-09-06T09:23:24.084Z,8
2022-09-06T09:29:09.859Z,0
2022-09-06T09:34:50.292Z,2
2022-09-06T09:40:32.973Z,6
2022-09-06T09:46:13.784Z,4
2022-09-06T09:51:58.744Z,0
2022-09-06T09:57:52.157Z,2
2022-09-06T10:04:44.289Z,6
2022-09-06T10:10:26.566Z,0
2022-09-06T10:16:07.329Z,0
2022-09-06T10:27:30.346Z,4
2022-09-06T10:33:21.271Z,0
2022-09-06T10:39:04.830Z,2
2022-09-06T10:44:46.403Z,0
2022-09-06T10:50:28.796Z,4
2022-09-06T10:56:14.196Z,0
2022-09-06T11:01:55.364Z,2
2022-09-06T11:07:37.161Z,0
2022-09-06T11:13:18.177Z,12
2022-09-06T11:19:04.357Z,6
2022-09-06T11:24:45.061Z,2
2022-09-06T11:30:25.133Z,2
2022-09-06T11:36:04.922Z,2
2022-09-06T11:41:47.209Z,0
2022-09-06T11:47:31.894Z,4
2022-09-06T11:53:12.241Z,0
2022-09-06T11:58:51.911Z,2
2022-09-06T12:04:32.943Z,0
2022-09-06T12:10:12.617Z,2
2022-09-06T12:15:53.264Z,0
2022-09-06T12:21:33.929Z,6
2022-09-06T12:27:14.546Z,0
2022-09-06T12:33:03.404Z,0
2022-09-06T12:38:51.714Z,2
2022-09-06T12:44:32.624Z,0
2022-09-06T12:50:15.056Z,0
2022-09-06T12:55:55.639Z,0
2022-09-06T14:31:54.265Z,62
2022-09-06T14:37:34.591Z,50
2022-09-06T14:43:17.409Z,60
2022-09-06T14:48:57.629Z,60
2022-09-06T14:54:37.725Z,48
2022-09-06T15:00:17.681Z,56
2022-09-06T15:05:57.771Z,56
2022-09-06T15:11:38.109Z,62
2022-09-06T15:17:18.716Z,56
2022-09-06T15:23:26.226Z,60
2022-09-06T15:29:06.754Z,54
2022-09-06T15:34:47.687Z,60
2022-09-06T15:40:27.909Z,48
2022-09-06T15:51:48.450Z,58
2022-09-06T15:57:28.621Z,52
2022-09-06T16:03:08.865Z,62
2022-09-06T16:08:49.036Z,54
2022-09-06T16:14:29.193Z,58
2022-09-06T16:20:09.732Z,46
2022-09-06T16:25:49.985Z,62
2022-09-06T16:31:30.719Z,52
2022-09-06T16:37:11.064Z,60
2022-09-06T16:42:51.231Z,66
2022-09-06T16:48:31.924Z,56
2022-09-06T16:54:12.177Z,52
2022-09-06T16:59:52.684Z,54
2022-09-06T17:05:32.937Z,48
2022-09-06T17:11:13.182Z,52
2022-09-06T17:16:56.468Z,50
2022-09-06T17:22:37.119Z,56
2022-09-06T17:28:17.221Z,50
2022-09-06T17:33:57.361Z,54
2022-09-06T17:45:18.155Z,64
2022-09-06T17:50:58.411Z,56
2022-09-06T17:56:38.613Z,50
2022-09-06T18:02:19.295Z,54
2022-09-06T18:07:59.389Z,62
2022-09-06T18:13:39.839Z,48
2022-09-06T18:19:19.895Z,62
2022-09-06T18:25:02.830Z,62
2022-09-06T18:30:45.748Z,56
2022-09-06T18:36:32.893Z,48
2022-09-06T18:42:13.738Z,54
2022-09-06T18:47:53.915Z,64
2022-09-06T18:53:36.102Z,48
2022-09-06T18:59:18.774Z,48
2022-09-06T19:04:59.140Z,56
2022-09-06T19:10:39.771Z,42
2022-09-06T19:16:20.303Z,56
2022-09-06T19:22:01.155Z,58
2022-09-06T19:27:49.373Z,82
2022-09-06T19:33:36.654Z,58
2022-09-06T19:39:17.068Z,54
2022-09-06T19:44:57.744Z,56
2022-09-06T19:50:38.001Z,50
2022-09-06T19:56:18.195Z,56
2022-09-06T20:01:58.928Z,48
2022-09-06T20:07:39.758Z,48
2022-09-06T20:13:20.014Z,50
2022-09-06T20:19:00.614Z,48
2022-09-06T20:24:41.087Z,60
2022-09-06T20:30:21.184Z,46
2022-09-06T20:49:53.756Z,98
2022-09-06T20:55:34.866Z,56
2022-09-06T21:01:17.670Z,56
2022-09-06T21:06:58.785Z,56
2022-09-06T21:12:38.996Z,60
2022-09-06T21:18:19.208Z,50
2022-09-06T21:23:59.704Z,56
2022-09-06T21:29:40.123Z,44
2022-09-06T21:35:20.116Z,56
2022-09-06T21:46:41.430Z,52
2022-09-06T21:52:21.724Z,48
2022-09-06T21:58:01.430Z,60
2022-09-06T22:03:41.050Z,46
2022-09-06T22:09:21.167Z,48
2022-09-06T22:15:01.472Z,44
2022-09-06T22:20:44.543Z,54
2022-09-06T22:26:25.113Z,56
2022-09-06T22:32:05.192Z,46
2022-09-06T22:37:47.720Z,44
2022-09-06T22:43:27.559Z,56
2022-09-06T22:49:07.562Z,52
2022-09-06T22:54:47.652Z,54
2022-09-06T23:00:28.480Z,56
2022-09-06T23:06:08.964Z,56
2022-09-06T23:11:49.110Z,56
2022-09-06T23:17:29.307Z,50
2022-09-06T23:23:09.613Z,46
2022-09-06T23:28:49.793Z,50
2022-09-06T23:40:10.299Z,46
2022-09-06T23:45:50.584Z,54
2022-09-06T23:51:30.987Z,52
2022-09-06T23:57:11.024Z,56
